createdAt,value
2018-09-13T00:00:55.779Z,20.71
2018-09-13T00:03:24.735Z,20.70
2018-09-13T00:05:53.765Z,20.81
2018-09-13T00:08:22.766Z,20.90
2018-09-13T00:10:52.071Z,20.88
2018-09-13T00:13:21.331Z,20.82
2018-09-13T00:15:50.616Z,20.79
2018-09-13T00:18:19.755Z,20.66
2018-09-13T00:20:49.043Z,20.43
2018-09-13T00:23:18.040Z,20.47
2018-09-13T00:25:46.927Z,20.58
2018-09-13T00:28:16.131Z,20.54
2018-09-13T00:30:45.548Z,20.48
2018-09-13T00:33:14.718Z,20.35
2018-09-13T00:35:43.913Z,20.29
2018-09-13T00:38:13.363Z,20.31
2018-09-13T00:40:42.701Z,20.56
2018-09-13T00:43:12.160Z,20.63
2018-09-13T00:45:41.244Z,20.70
2018-09-13T00:48:10.278Z,20.66
2018-09-13T00:50:39.507Z,20.58
2018-09-13T00:53:09.089Z,20.44
2018-09-13T00:55:38.444Z,20.40
2018-09-13T00:58:07.753Z,20.37
2018-09-13T01:00:37.055Z,20.46
2018-09-13T01:03:06.331Z,20.39
2018-09-13T01:05:35.515Z,20.41
2018-09-13T01:08:04.673Z,20.53
2018-09-13T01:10:34.185Z,20.44
2018-09-13T01:13:03.430Z,20.55
2018-09-13T01:15:32.892Z,20.65
2018-09-13T01:18:02.072Z,20.58
2018-09-13T01:20:30.892Z,20.60
2018-09-13T01:23:00.060Z,20.53
2018-09-13T01:25:29.382Z,20.58
2018-09-13T01:27:58.764Z,20.60
2018-09-13T01:30:27.879Z,20.59
2018-09-13T01:32:57.363Z,20.40
2018-09-13T01:35:26.754Z,20.48
2018-09-13T01:37:56.141Z,20.55
2018-09-13T01:40:25.084Z,20.59
2018-09-13T01:42:54.287Z,20.53
2018-09-13T01:45:23.543Z,20.41
2018-09-13T01:47:52.912Z,20.47
2018-09-13T01:50:22.040Z,20.54
2018-09-13T01:52:51.277Z,20.56
2018-09-13T01:55:20.660Z,20.61
2018-09-13T01:57:50.108Z,20.55
2018-09-13T02:00:19.217Z,20.50
2018-09-13T02:02:48.215Z,20.50
2018-09-13T02:05:17.500Z,20.46
2018-09-13T02:07:46.736Z,20.45
2018-09-13T02:10:15.757Z,20.51
2018-09-13T02:12:45.142Z,20.45
2018-09-13T02:15:14.500Z,20.48
2018-09-13T02:17:43.832Z,20.31
2018-09-13T02:20:13.220Z,20.06
2018-09-13T02:22:42.464Z,20.16
2018-09-13T02:25:11.689Z,20.22
2018-09-13T02:27:40.787Z,20.22
2018-09-13T02:30:10.268Z,20.18
2018-09-13T02:32:39.680Z,20.02
2018-09-13T02:35:09.051Z,19.95
2018-09-13T02:37:38.370Z,19.93
2018-09-13T02:40:07.396Z,19.87
2018-09-13T02:42:36.327Z,19.71
2018-09-13T02:45:05.674Z,19.61
2018-09-13T02:47:34.872Z,19.54
2018-09-13T02:50:04.068Z,19.58
2018-09-13T02:52:33.408Z,19.58
2018-09-13T02:55:02.691Z,19.42
2018-09-13T02:57:31.812Z,19.36
2018-09-13T03:00:01.113Z,19.26
2018-09-13T03:02:30.321Z,19.36
2018-09-13T03:04:59.594Z,19.30
2018-09-13T03:07:28.986Z,19.38
2018-09-13T03:09:58.185Z,19.37
2018-09-13T03:12:27.268Z,19.39
2018-09-13T03:14:56.605Z,19.40
2018-09-13T03:17:25.676Z,19.52
2018-09-13T03:19:54.724Z,19.60
2018-09-13T03:22:23.970Z,19.46
2018-09-13T03:24:52.868Z,19.56
2018-09-13T03:27:22.324Z,19.41
2018-09-13T03:29:51.761Z,19.45
2018-09-13T03:32:21.052Z,19.50
2018-09-13T03:34:50.462Z,19.37
2018-09-13T03:37:19.528Z,19.27
2018-09-13T03:39:48.709Z,19.37
2018-09-13T03:42:17.635Z,19.54
2018-09-13T03:44:46.756Z,19.67
2018-09-13T03:47:16.100Z,19.57
2018-09-13T03:49:45.336Z,19.46
2018-09-13T03:52:14.659Z,19.36
2018-09-13T03:54:44.098Z,19.22
2018-09-13T03:57:13.428Z,19.11
2018-09-13T03:59:42.388Z,19.05
2018-09-13T04:02:11.731Z,19.19
2018-09-13T04:04:40.783Z,19.19
2018-09-13T04:07:10.227Z,19.19
2018-09-13T04:09:39.427Z,19.26
2018-09-13T04:12:08.746Z,19.19
2018-09-13T04:14:37.774Z,19.20
2018-09-13T04:17:06.839Z,19.21
2018-09-13T04:19:46.552Z,19.17
2018-09-13T04:22:16.740Z,19.36
2018-09-13T04:24:46.150Z,19.39
2018-09-13T04:27:15.548Z,19.49
2018-09-13T04:29:44.800Z,19.50
2018-09-13T04:32:14.252Z,19.40
2018-09-13T04:34:43.304Z,19.16
2018-09-13T04:37:12.732Z,19.07
2018-09-13T04:39:42.027Z,19.01
2018-09-13T04:42:11.288Z,19.28
2018-09-13T04:44:40.627Z,19.28
2018-09-13T04:47:09.645Z,19.40
2018-09-13T04:49:39.011Z,19.39
2018-09-13T04:52:08.387Z,19.46
2018-09-13T04:54:37.612Z,19.50
2018-09-13T04:57:07.061Z,19.56
2018-09-13T04:59:36.272Z,19.52
2018-09-13T05:02:05.456Z,19.59
2018-09-13T05:04:34.695Z,19.69
2018-09-13T05:07:04.156Z,19.68
2018-09-13T05:09:33.507Z,19.76
2018-09-13T05:12:02.833Z,19.87
2018-09-13T05:14:32.087Z,19.90
2018-09-13T05:17:01.340Z,19.94
2018-09-13T05:19:30.699Z,20.12
2018-09-13T05:22:00.005Z,20.18
2018-09-13T05:24:29.182Z,20.12
2018-09-13T05:26:58.310Z,20.19
2018-09-13T05:29:27.484Z,20.29
2018-09-13T05:31:56.827Z,20.44
2018-09-13T05:34:25.887Z,20.64
2018-09-13T05:36:55.272Z,20.88
2018-09-13T05:39:24.200Z,21.00
2018-09-13T05:41:53.363Z,20.94
2018-09-13T05:44:22.719Z,20.84
2018-09-13T05:46:52.080Z,20.72
2018-09-13T05:49:21.422Z,20.70
2018-09-13T05:51:50.672Z,20.79
2018-09-13T05:54:19.899Z,21.00
2018-09-13T05:56:49.273Z,21.08
2018-09-13T05:59:18.280Z,21.15
2018-09-13T06:01:47.216Z,21.20
2018-09-13T06:04:16.265Z,21.23
2018-09-13T06:06:45.656Z,21.32
2018-09-13T06:09:14.811Z,21.25
2018-09-13T06:11:44.283Z,21.25
2018-09-13T06:14:13.643Z,21.30
2018-09-13T06:16:42.992Z,21.34
2018-09-13T06:19:12.353Z,21.32
2018-09-13T06:21:41.659Z,21.35
2018-09-13T06:24:10.916Z,21.40
2018-09-13T06:26:40.397Z,21.53
2018-09-13T06:29:09.746Z,21.69
2018-09-13T06:31:39.167Z,21.68
2018-09-13T06:34:08.660Z,21.73
2018-09-13T06:36:37.724Z,21.75
2018-09-13T06:39:08.472Z,21.79
2018-09-13T06:41:37.623Z,21.98
2018-09-13T06:44:06.955Z,22.14
2018-09-13T06:46:36.120Z,22.30
2018-09-13T06:49:05.077Z,22.25
2018-09-13T06:51:34.269Z,22.23
2018-09-13T06:54:03.490Z,22.15
2018-09-13T06:56:32.687Z,22.18
2018-09-13T06:59:02.172Z,22.24
2018-09-13T07:01:31.459Z,22.27
2018-09-13T07:04:00.451Z,22.27
2018-09-13T07:06:29.489Z,22.34
2018-09-13T07:08:58.598Z,22.25
2018-09-13T07:11:28.024Z,22.31
2018-09-13T07:13:57.506Z,22.33
2018-09-13T07:16:26.780Z,22.42
2018-09-13T07:18:56.171Z,22.62
2018-09-13T07:21:25.467Z,22.90
2018-09-13T07:23:54.867Z,23.20
2018-09-13T07:26:24.289Z,23.58
2018-09-13T07:28:53.304Z,23.84
2018-09-13T07:31:22.639Z,23.99
2018-09-13T07:33:51.828Z,24.03
2018-09-13T07:36:21.189Z,23.89
2018-09-13T07:38:50.623Z,23.90
2018-09-13T07:41:19.810Z,24.10
2018-09-13T07:43:49.239Z,24.31
2018-09-13T07:46:18.357Z,24.63
2018-09-13T07:48:47.765Z,25.07
2018-09-13T07:51:16.889Z,25.79
2018-09-13T07:53:47.810Z,26.07
2018-09-13T07:56:17.162Z,26.36
2018-09-13T07:58:46.108Z,26.63
2018-09-13T08:01:15.471Z,27.12
2018-09-13T08:03:44.639Z,27.19
2018-09-13T08:06:13.871Z,26.99
2018-09-13T08:08:43.437Z,27.23
2018-09-13T08:11:12.639Z,26.92
2018-09-13T08:13:42.005Z,27.18
2018-09-13T08:16:10.982Z,26.98
2018-09-13T08:18:40.345Z,26.91
2018-09-13T08:21:09.690Z,26.88
2018-09-13T08:23:39.002Z,26.96
2018-09-13T08:26:08.246Z,27.12
2018-09-13T08:28:37.419Z,27.45
2018-09-13T08:31:06.669Z,27.37
2018-09-13T08:33:35.911Z,26.85
2018-09-13T08:36:05.151Z,26.68
2018-09-13T08:38:34.447Z,26.23
2018-09-13T08:41:04.089Z,25.84
2018-09-13T08:43:33.429Z,25.60
2018-09-13T08:46:02.348Z,25.38
2018-09-13T08:48:31.839Z,25.21
2018-09-13T08:51:00.988Z,25.13
2018-09-13T08:53:30.380Z,25.16
2018-09-13T08:55:59.419Z,25.40
2018-09-13T08:58:28.842Z,25.59
2018-09-13T09:00:59.134Z,25.75
2018-09-13T09:03:28.149Z,25.67
2018-09-13T09:05:57.314Z,25.90
2018-09-13T09:08:26.635Z,26.29
2018-09-13T09:10:56.291Z,26.56
2018-09-13T09:13:25.727Z,26.55
2018-09-13T09:15:54.871Z,26.64
2018-09-13T09:18:23.902Z,26.43
2018-09-13T09:20:53.278Z,26.48
2018-09-13T09:23:22.353Z,26.68
2018-09-13T09:25:51.594Z,26.71
2018-09-13T09:28:20.852Z,26.69
2018-09-13T09:30:50.304Z,26.34
2018-09-13T09:33:19.464Z,26.38
2018-09-13T09:35:48.871Z,26.68
2018-09-13T09:38:18.508Z,26.72
2018-09-13T09:40:47.752Z,26.54
2018-09-13T09:43:17.162Z,26.58
2018-09-13T09:45:46.572Z,26.55
2018-09-13T09:48:15.688Z,26.34
2018-09-13T09:50:44.789Z,26.33
2018-09-13T09:53:14.276Z,26.87
2018-09-13T09:55:43.592Z,27.61
2018-09-13T09:58:13.021Z,27.68
2018-09-13T10:00:47.208Z,28.56
2018-09-13T10:03:16.513Z,29.84
2018-09-13T10:05:45.779Z,30.70
2018-09-13T10:08:15.284Z,31.67
2018-09-13T10:10:44.395Z,32.93
2018-09-13T10:13:13.828Z,34.26
2018-09-13T10:15:48.070Z,35.10
2018-09-13T10:18:22.512Z,33.74
2018-09-13T10:20:56.671Z,32.14
2018-09-13T10:23:31.162Z,31.82
2018-09-13T10:26:05.379Z,33.64
2018-09-13T10:28:39.653Z,34.02
2018-09-13T10:31:14.104Z,31.93
2018-09-13T10:33:48.344Z,31.17
2018-09-13T10:36:22.935Z,32.44
2018-09-13T10:38:57.533Z,31.69
2018-09-13T10:41:31.983Z,29.80
2018-09-13T10:44:06.221Z,29.45
2018-09-13T10:46:35.927Z,30.35
2018-09-13T10:49:10.233Z,32.70
2018-09-13T10:51:44.475Z,34.68
2018-09-13T10:54:18.653Z,37.03
2018-09-13T10:56:47.696Z,37.73
2018-09-13T10:59:16.760Z,39.32
2018-09-13T11:01:46.057Z,40.01
2018-09-13T11:04:15.532Z,40.35
2018-09-13T11:06:44.887Z,40.08
2018-09-13T11:09:15.069Z,41.54
2018-09-13T11:11:44.785Z,42.25
2018-09-13T11:14:22.971Z,40.46
2018-09-13T11:16:52.030Z,38.60
2018-09-13T11:19:21.494Z,36.76
2018-09-13T11:21:51.247Z,35.07
2018-09-13T11:24:20.390Z,34.04
2018-09-13T11:26:49.751Z,34.48
2018-09-13T11:29:19.047Z,34.31
2018-09-13T11:31:48.624Z,33.22
2018-09-13T11:34:17.755Z,32.79
2018-09-13T11:36:47.233Z,33.44
2018-09-13T11:39:16.642Z,35.67
2018-09-13T11:41:46.245Z,37.42
2018-09-13T11:44:15.602Z,38.88
2018-09-13T11:46:44.671Z,38.82
2018-09-13T11:49:14.189Z,39.29
2018-09-13T11:51:43.471Z,39.72
2018-09-13T11:54:12.915Z,38.38
2018-09-13T11:56:42.268Z,37.35
2018-09-13T11:59:11.511Z,36.78
2018-09-13T12:01:41.139Z,36.47
2018-09-13T12:04:10.260Z,36.07
2018-09-13T12:06:39.375Z,34.61
2018-09-13T12:09:14.088Z,33.55
2018-09-13T12:11:43.503Z,32.85
2018-09-13T12:14:12.786Z,32.87
2018-09-13T12:16:42.434Z,33.71
2018-09-13T12:19:11.561Z,34.02
2018-09-13T12:21:47.206Z,35.75
2018-09-13T12:24:17.690Z,37.26
2018-09-13T12:26:47.732Z,37.20
2018-09-13T12:29:17.120Z,35.13
2018-09-13T12:31:46.179Z,33.67
2018-09-13T12:34:15.323Z,33.14
2018-09-13T12:36:44.757Z,32.44
2018-09-13T12:39:14.040Z,31.47
2018-09-13T12:41:43.363Z,31.25
2018-09-13T12:44:12.848Z,32.62
2018-09-13T12:46:42.272Z,33.41
2018-09-13T12:49:11.737Z,33.99
2018-09-13T12:51:40.908Z,33.56
2018-09-13T12:54:10.119Z,33.37
2018-09-13T12:56:39.488Z,35.02
2018-09-13T12:59:08.960Z,36.45
2018-09-13T13:01:38.651Z,36.20
2018-09-13T13:04:08.161Z,36.56
2018-09-13T13:06:37.408Z,36.41
2018-09-13T13:09:09.552Z,37.61
2018-09-13T13:11:38.767Z,38.36
2018-09-13T13:14:07.914Z,38.77
2018-09-13T13:16:37.325Z,39.31
2018-09-13T13:19:06.927Z,39.68
2018-09-13T13:21:36.330Z,38.79
2018-09-13T13:24:05.690Z,37.98
2018-09-13T13:26:34.832Z,38.61
2018-09-13T13:29:03.919Z,38.99
2018-09-13T13:31:33.067Z,38.45
2018-09-13T13:34:02.412Z,37.43
2018-09-13T13:36:31.806Z,35.47
2018-09-13T13:39:01.155Z,35.02
2018-09-13T13:41:30.404Z,34.59
2018-09-13T13:43:59.743Z,33.85
2018-09-13T13:46:28.867Z,33.09
2018-09-13T13:48:58.272Z,31.84
2018-09-13T13:51:27.424Z,31.59
2018-09-13T13:53:56.507Z,31.28
2018-09-13T13:56:25.756Z,30.87
2018-09-13T13:58:55.105Z,30.77
2018-09-13T14:01:24.279Z,30.52
2018-09-13T14:03:53.257Z,30.43
2018-09-13T14:06:22.578Z,30.33
2018-09-13T14:08:51.777Z,30.27
2018-09-13T14:11:21.168Z,29.77
2018-09-13T14:13:50.626Z,29.65
2018-09-13T14:16:19.714Z,29.59
2018-09-13T14:18:49.226Z,29.62
2018-09-13T14:21:18.712Z,29.52
2018-09-13T14:23:48.025Z,29.33
2018-09-13T14:26:17.267Z,29.03
2018-09-13T14:28:46.717Z,28.92
2018-09-13T14:31:16.016Z,28.59
2018-09-13T14:33:45.284Z,28.39
2018-09-13T14:36:14.571Z,28.23
2018-09-13T14:38:43.876Z,28.24
2018-09-13T14:41:13.347Z,28.09
2018-09-13T14:43:42.712Z,28.13
2018-09-13T14:46:11.979Z,28.05
2018-09-13T14:48:41.271Z,27.97
2018-09-13T14:51:10.579Z,27.76
2018-09-13T14:53:39.923Z,27.66
2018-09-13T14:56:09.342Z,27.58
2018-09-13T14:58:38.782Z,27.44
2018-09-13T15:01:08.340Z,27.43
2018-09-13T15:03:37.375Z,27.34
2018-09-13T15:06:06.583Z,27.28
2018-09-13T15:08:35.868Z,27.31
2018-09-13T15:11:05.180Z,27.23
2018-09-13T15:13:34.502Z,27.18
2018-09-13T15:16:04.680Z,27.19
2018-09-13T15:18:33.978Z,27.21
2018-09-13T15:21:02.935Z,27.13
2018-09-13T15:23:32.316Z,27.09
2018-09-13T15:26:01.336Z,27.14
2018-09-13T15:28:30.896Z,27.09
2018-09-13T15:31:00.164Z,26.93
2018-09-13T15:33:29.522Z,26.95
2018-09-13T15:35:58.620Z,26.87
2018-09-13T15:38:27.717Z,26.78
2018-09-13T15:40:57.070Z,26.75
2018-09-13T15:43:26.359Z,26.73
2018-09-13T15:45:55.546Z,26.70
2018-09-13T15:48:24.817Z,26.64
2018-09-13T15:50:54.263Z,26.46
2018-09-13T15:53:23.624Z,26.43
2018-09-13T15:55:53.011Z,26.31
2018-09-13T15:58:22.468Z,26.25
2018-09-13T16:00:51.837Z,26.19
2018-09-13T16:03:20.846Z,26.16
2018-09-13T16:05:50.260Z,26.12
2018-09-13T16:08:19.490Z,26.10
2018-09-13T16:10:48.768Z,25.95
2018-09-13T16:13:18.054Z,25.95
2018-09-13T16:15:47.359Z,25.89
2018-09-13T16:18:16.492Z,25.64
2018-09-13T16:20:45.601Z,25.52
2018-09-13T16:23:15.096Z,25.33
2018-09-13T16:25:44.491Z,25.34
2018-09-13T16:28:13.681Z,25.20
2018-09-13T16:30:43.044Z,24.90
2018-09-13T16:33:12.193Z,24.76
2018-09-13T16:35:45.472Z,24.57
2018-09-13T16:38:19.916Z,24.65
2018-09-13T16:40:54.229Z,24.63
2018-09-13T16:43:28.701Z,24.57
2018-09-13T16:45:57.975Z,24.41
2018-09-13T16:48:32.252Z,24.44
2018-09-13T16:51:01.551Z,24.31
2018-09-13T16:53:31.058Z,24.16
2018-09-13T16:56:00.470Z,24.04
2018-09-13T16:58:29.824Z,23.88
2018-09-13T17:00:59.258Z,23.76
2018-09-13T17:03:28.603Z,23.69
2018-09-13T17:05:57.776Z,23.56
2018-09-13T17:08:27.019Z,23.51
2018-09-13T17:10:56.211Z,23.33
2018-09-13T17:13:25.165Z,23.13
2018-09-13T17:15:54.536Z,23.03
2018-09-13T17:18:23.750Z,23.00
2018-09-13T17:20:52.749Z,23.01
2018-09-13T17:23:21.945Z,22.97
2018-09-13T17:25:51.256Z,22.89
2018-09-13T17:28:20.743Z,23.00
2018-09-13T17:30:50.126Z,22.79
2018-09-13T17:33:19.327Z,22.81
2018-09-13T17:35:48.765Z,22.86
2018-09-13T17:38:21.617Z,22.70
2018-09-13T17:40:51.189Z,22.54
2018-09-13T17:43:20.696Z,22.60
2018-09-13T17:45:50.270Z,22.56
2018-09-13T17:48:19.573Z,22.44
2018-09-13T17:50:48.845Z,22.32
2018-09-13T17:53:18.066Z,22.06
2018-09-13T17:55:47.363Z,22.11
2018-09-13T17:58:16.700Z,21.96
2018-09-13T18:00:46.027Z,21.78
2018-09-13T18:03:15.475Z,21.62
2018-09-13T18:05:44.811Z,21.48
2018-09-13T18:08:14.239Z,21.41
2018-09-13T18:10:43.567Z,21.55
2018-09-13T18:13:12.569Z,21.48
2018-09-13T18:15:42.150Z,21.40
2018-09-13T18:18:12.042Z,21.23
2018-09-13T18:20:51.103Z,21.30
2018-09-13T18:23:20.757Z,21.31
2018-09-13T18:25:51.043Z,21.29
2018-09-13T18:28:21.051Z,21.34
2018-09-13T18:30:50.411Z,21.31
2018-09-13T18:33:19.893Z,21.32
2018-09-13T18:35:49.051Z,21.16
2018-09-13T18:38:18.309Z,21.19
2018-09-13T18:40:47.805Z,21.18
2018-09-13T18:43:17.219Z,21.00
2018-09-13T18:45:47.185Z,21.12
2018-09-13T18:48:16.650Z,21.11
2018-09-13T18:50:45.909Z,21.17
2018-09-13T18:53:15.199Z,21.30
2018-09-13T18:55:44.634Z,21.11
2018-09-13T18:58:13.840Z,21.15
2018-09-13T19:00:43.205Z,21.18
2018-09-13T19:03:12.656Z,21.20
2018-09-13T19:05:42.234Z,21.21
2018-09-13T19:08:12.197Z,21.17
2018-09-13T19:10:41.614Z,21.15
2018-09-13T19:13:10.994Z,21.09
2018-09-13T19:15:41.210Z,21.03
2018-09-13T19:18:10.687Z,21.12
2018-09-13T19:20:39.880Z,21.22
2018-09-13T19:23:09.920Z,21.24
2018-09-13T19:25:40.055Z,21.29
2018-09-13T19:28:09.102Z,21.36
2018-09-13T19:30:39.347Z,21.41
2018-09-13T19:33:08.812Z,21.46
2018-09-13T19:35:40.114Z,21.51
2018-09-13T19:38:09.684Z,21.53
2018-09-13T19:40:39.798Z,21.48
2018-09-13T19:43:09.887Z,21.36
2018-09-13T19:45:39.785Z,21.42
2018-09-13T19:48:09.532Z,21.50
2018-09-13T19:50:38.930Z,21.55
2018-09-13T19:53:08.332Z,21.45
2018-09-13T19:55:38.370Z,21.42
2018-09-13T19:58:07.362Z,21.31
2018-09-13T20:00:36.435Z,21.23
2018-09-13T20:03:05.869Z,21.21
2018-09-13T20:05:35.092Z,21.18
2018-09-13T20:08:04.701Z,21.15
2018-09-13T20:10:33.993Z,21.13
2018-09-13T20:13:02.970Z,21.16
2018-09-13T20:15:32.177Z,21.20
2018-09-13T20:18:01.210Z,21.07
2018-09-13T20:20:30.425Z,20.96
2018-09-13T20:22:59.981Z,20.84
2018-09-13T20:25:29.266Z,20.85
2018-09-13T20:27:58.831Z,20.79
2018-09-13T20:30:28.218Z,20.72
2018-09-13T20:32:57.059Z,20.58
2018-09-13T20:35:26.155Z,20.54
2018-09-13T20:37:55.183Z,20.54
2018-09-13T20:40:24.385Z,20.55
2018-09-13T20:42:53.590Z,20.53
2018-09-13T20:45:22.845Z,20.56
2018-09-13T20:47:52.049Z,20.75
2018-09-13T20:50:21.255Z,20.76
2018-09-13T20:52:50.657Z,20.75
2018-09-13T20:55:19.896Z,20.73
2018-09-13T20:57:49.401Z,20.84
2018-09-13T21:00:18.796Z,21.03
2018-09-13T21:02:49.251Z,21.03
2018-09-13T21:05:19.103Z,20.97
2018-09-13T21:07:48.647Z,20.88
2018-09-13T21:10:17.929Z,20.75
2018-09-13T21:12:47.145Z,20.66
2018-09-13T21:15:16.523Z,20.57
2018-09-13T21:17:45.897Z,20.48
2018-09-13T21:20:15.183Z,20.31
2018-09-13T21:22:44.287Z,20.37
2018-09-13T21:25:13.471Z,20.41
2018-09-13T21:27:42.874Z,20.34
2018-09-13T21:30:12.172Z,20.16
2018-09-13T21:32:41.432Z,20.15
2018-09-13T21:35:10.571Z,20.23
2018-09-13T21:37:39.612Z,20.21
2018-09-13T21:40:08.796Z,20.15
2018-09-13T21:42:38.112Z,20.09
2018-09-13T21:45:07.719Z,19.97
2018-09-13T21:47:37.209Z,19.83
2018-09-13T21:50:06.871Z,19.77
2018-09-13T21:52:36.224Z,19.65
2018-09-13T21:55:05.283Z,19.58
2018-09-13T21:57:34.676Z,19.49
2018-09-13T22:00:03.822Z,19.44
2018-09-13T22:02:33.109Z,19.46
2018-09-13T22:05:02.288Z,19.39
2018-09-13T22:07:31.463Z,19.28
2018-09-13T22:10:00.910Z,19.14
2018-09-13T22:12:30.150Z,19.30
2018-09-13T22:14:59.363Z,19.34
2018-09-13T22:17:28.609Z,19.40
2018-09-13T22:19:57.851Z,19.47
2018-09-13T22:22:27.251Z,19.44
2018-09-13T22:24:56.297Z,19.30
2018-09-13T22:27:25.243Z,19.33
2018-09-13T22:29:54.162Z,19.40
2018-09-13T22:32:23.248Z,19.39
2018-09-13T22:34:52.415Z,19.27
2018-09-13T22:37:21.840Z,19.25
2018-09-13T22:39:51.127Z,19.28
2018-09-13T22:42:20.331Z,19.25
2018-09-13T22:44:49.662Z,19.19
2018-09-13T22:47:19.016Z,19.08
2018-09-13T22:49:48.208Z,19.10
2018-09-13T22:52:17.259Z,19.35
2018-09-13T22:54:46.431Z,19.36
2018-09-13T22:57:15.888Z,19.42
2018-09-13T22:59:44.955Z,19.42
2018-09-13T23:02:14.201Z,19.26
2018-09-13T23:04:43.488Z,19.40
2018-09-13T23:07:12.419Z,19.50
2018-09-13T23:09:41.515Z,19.52
2018-09-13T23:12:10.700Z,19.47
2018-09-13T23:14:40.044Z,19.37
2018-09-13T23:17:09.368Z,19.25
2018-09-13T23:19:38.628Z,19.23
2018-09-13T23:22:08.956Z,19.26
2018-09-13T23:24:38.340Z,19.27
2018-09-13T23:27:09.542Z,19.12
2018-09-13T23:29:39.144Z,19.06
2018-09-13T23:32:08.505Z,18.95
2018-09-13T23:34:37.849Z,18.88
2018-09-13T23:37:06.827Z,19.03
2018-09-13T23:39:36.365Z,19.18
2018-09-13T23:42:05.487Z,19.19
2018-09-13T23:44:34.840Z,19.15
2018-09-13T23:47:04.210Z,19.08
2018-09-13T23:49:33.434Z,19.01
2018-09-13T23:52:02.339Z,18.97
2018-09-13T23:54:31.200Z,18.89
2018-09-13T23:57:00.636Z,18.85
2018-09-13T23:59:29.965Z,18.84
